sensor_id;sensor_type;location;lat;lon;timestamp;pressure;altitude;pressure_sealevel;temperature;humidity
13594;BME280;6449;47.666;9.160;2023-07-29T00:00:58;96603.06;;;18.49;100.00
13594;BME280;6449;47.666;9.160;2023-07-29T00:05:53;96592.06;;;18.60;100.00
13594;BME280;6449;47.666;9.160;2023-07-29T00:10:48;96595.91;;;18.49;100.00
13594;BME280;6449;47.666;9.160;2023-07-29T00:15:41;96598.09;;;18.46;100.00
13594;BME280;6449;47.666;9.160;2023-07-29T00:20:34;96604.03;;;18.48;100.00
13594;BME280;6449;47.666;9.160;2023-07-29T00:25:28;96600.53;;;18.55;100.00
13594;BME280;6449;47.666;9.160;2023-07-29T00:30:22;96587.38;;;18.62;100.00
13594;BME280;6449;47.666;9.160;2023-07-29T00:35:16;96575.41;;;18.66;100.00
13594;BME280;6449;47.666;9.160;2023-07-29T00:40:19;96572.16;;;18.56;100.00
13594;BME280;6449;47.666;9.160;2023-07-29T00:45:14;96580.28;;;18.54;100.00
13594;BME280;6449;47.666;9.160;2023-07-29T00:50:11;96575.50;;;18.50;100.00
13594;BME280;6449;47.666;9.160;2023-07-29T00:55:06;96567.41;;;18.43;100.00
13594;BME280;6449;47.666;9.160;2023-07-29T01:00:00;96565.78;;;18.34;100.00
13594;BME280;6449;47.666;9.160;2023-07-29T01:04:54;96572.31;;;18.23;100.00
13594;BME280;6449;47.666;9.160;2023-07-29T01:09:57;96575.03;;;18.07;100.00
13594;BME280;6449;47.666;9.160;2023-07-29T01:15:01;96577.16;;;18.12;100.00
13594;BME280;6449;47.666;9.160;2023-07-29T01:20:04;96584.81;;;17.98;100.00
13594;BME280;6449;47.666;9.160;2023-07-29T01:25:02;96569.84;;;18.22;100.00
13594;BME280;6449;47.666;9.160;2023-07-29T01:29:57;96562.66;;;18.30;100.00
13594;BME280;6449;47.666;9.160;2023-07-29T01:35:02;96552.00;;;18.39;100.00
13594;BME280;6449;47.666;9.160;2023-07-29T01:39:59;96553.69;;;18.31;100.00
13594;BME280;6449;47.666;9.160;2023-07-29T01:44:54;96550.72;;;18.26;100.00
13594;BME280;6449;47.666;9.160;2023-07-29T01:49:48;96556.44;;;18.07;100.00
13594;BME280;6449;47.666;9.160;2023-07-29T01:54:41;96550.53;;;17.89;100.00
13594;BME280;6449;47.666;9.160;2023-07-29T01:59:34;96549.56;;;17.73;100.00
13594;BME280;6449;47.666;9.160;2023-07-29T02:04:29;96536.44;;;17.88;100.00
13594;BME280;6449;47.666;9.160;2023-07-29T02:09:22;96538.78;;;17.83;100.00
13594;BME280;6449;47.666;9.160;2023-07-29T02:14:17;96537.56;;;17.94;100.00
13594;BME280;6449;47.666;9.160;2023-07-29T02:19:11;96539.78;;;17.82;100.00
13594;BME280;6449;47.666;9.160;2023-07-29T02:24:06;96523.66;;;17.92;100.00
13594;BME280;6449;47.666;9.160;2023-07-29T02:28:59;96515.22;;;17.96;100.00
13594;BME280;6449;47.666;9.160;2023-07-29T02:33:52;96514.19;;;17.97;100.00
13594;BME280;6449;47.666;9.160;2023-07-29T02:38:46;96544.94;;;17.75;100.00
13594;BME280;6449;47.666;9.160;2023-07-29T02:43:42;96531.97;;;17.89;100.00
13594;BME280;6449;47.666;9.160;2023-07-29T02:48:35;96529.47;;;17.95;100.00
13594;BME280;6449;47.666;9.160;2023-07-29T02:53:29;96526.19;;;17.85;100.00
13594;BME280;6449;47.666;9.160;2023-07-29T02:58:22;96522.06;;;17.74;100.00
13594;BME280;6449;47.666;9.160;2023-07-29T03:03:17;96515.34;;;18.03;100.00
13594;BME280;6449;47.666;9.160;2023-07-29T03:08:11;96511.22;;;17.92;100.00
13594;BME280;6449;47.666;9.160;2023-07-29T03:13:05;96507.41;;;17.95;100.00
13594;BME280;6449;47.666;9.160;2023-07-29T03:17:58;96504.41;;;18.06;100.00
13594;BME280;6449;47.666;9.160;2023-07-29T03:22:53;96513.63;;;18.10;100.00
13594;BME280;6449;47.666;9.160;2023-07-29T03:27:46;96520.00;;;17.93;100.00
13594;BME280;6449;47.666;9.160;2023-07-29T03:32:44;96510.22;;;17.93;100.00
13594;BME280;6449;47.666;9.160;2023-07-29T03:37:38;96506.38;;;18.04;100.00
13594;BME280;6449;47.666;9.160;2023-07-29T03:42:33;96508.56;;;18.00;100.00
13594;BME280;6449;47.666;9.160;2023-07-29T03:47:27;96522.59;;;18.09;100.00
13594;BME280;6449;47.666;9.160;2023-07-29T03:52:21;96537.69;;;18.17;100.00
13594;BME280;6449;47.666;9.160;2023-07-29T03:57:14;96532.69;;;18.22;100.00
13594;BME280;6449;47.666;9.160;2023-07-29T04:02:09;96523.34;;;18.26;100.00
13594;BME280;6449;47.666;9.160;2023-07-29T04:07:03;96509.47;;;18.16;100.00
13594;BME280;6449;47.666;9.160;2023-07-29T04:11:56;96521.50;;;17.95;100.00
13594;BME280;6449;47.666;9.160;2023-07-29T04:16:50;96548.53;;;17.91;100.00
13594;BME280;6449;47.666;9.160;2023-07-29T04:21:44;96553.16;;;17.97;100.00
13594;BME280;6449;47.666;9.160;2023-07-29T04:26:38;96562.56;;;18.08;100.00
13594;BME280;6449;47.666;9.160;2023-07-29T04:31:32;96554.94;;;18.13;100.00
13594;BME280;6449;47.666;9.160;2023-07-29T04:36:25;96593.22;;;18.18;100.00
13594;BME280;6449;47.666;9.160;2023-07-29T04:41:20;96563.66;;;18.29;100.00
13594;BME280;6449;47.666;9.160;2023-07-29T04:46:13;96546.69;;;18.39;100.00
13594;BME280;6449;47.666;9.160;2023-07-29T04:51:06;96549.25;;;18.24;100.00
13594;BME280;6449;47.666;9.160;2023-07-29T04:56:00;96536.16;;;18.22;100.00
13594;BME280;6449;47.666;9.160;2023-07-29T05:00:55;96525.66;;;18.29;100.00
13594;BME280;6449;47.666;9.160;2023-07-29T05:05:49;96539.94;;;18.28;100.00
13594;BME280;6449;47.666;9.160;2023-07-29T05:10:43;96541.78;;;18.27;100.00
13594;BME280;6449;47.666;9.160;2023-07-29T05:15:36;96531.50;;;18.24;100.00
13594;BME280;6449;47.666;9.160;2023-07-29T05:20:31;96536.78;;;18.32;100.00
13594;BME280;6449;47.666;9.160;2023-07-29T05:25:25;96528.56;;;18.42;100.00
13594;BME280;6449;47.666;9.160;2023-07-29T05:30:18;96521.41;;;18.51;100.00
13594;BME280;6449;47.666;9.160;2023-07-29T05:35:11;96538.25;;;18.66;100.00
13594;BME280;6449;47.666;9.160;2023-07-29T05:40:07;96538.50;;;18.79;100.00
13594;BME280;6449;47.666;9.160;2023-07-29T05:45:02;96550.13;;;18.78;100.00
13594;BME280;6449;47.666;9.160;2023-07-29T05:49:55;96557.88;;;18.88;100.00
13594;BME280;6449;47.666;9.160;2023-07-29T05:54:52;96559.41;;;18.82;100.00
13594;BME280;6449;47.666;9.160;2023-07-29T05:59:46;96563.78;;;18.75;100.00
13594;BME280;6449;47.666;9.160;2023-07-29T06:04:40;96553.16;;;18.75;100.00
13594;BME280;6449;47.666;9.160;2023-07-29T06:09:33;96552.44;;;18.81;100.00
13594;BME280;6449;47.666;9.160;2023-07-29T06:14:27;96560.75;;;19.01;100.00
13594;BME280;6449;47.666;9.160;2023-07-29T06:19:22;96557.53;;;19.14;100.00
13594;BME280;6449;47.666;9.160;2023-07-29T06:24:15;96551.06;;;19.31;100.00
13594;BME280;6449;47.666;9.160;2023-07-29T06:29:08;96556.53;;;19.53;100.00
13594;BME280;6449;47.666;9.160;2023-07-29T06:34:01;96556.53;;;19.53;100.00
13594;BME280;6449;47.666;9.160;2023-07-29T06:38:56;96554.88;;;19.52;100.00
13594;BME280;6449;47.666;9.160;2023-07-29T06:43:49;96560.13;;;19.60;100.00
13594;BME280;6449;47.666;9.160;2023-07-29T06:48:43;96552.72;;;19.70;100.00
13594;BME280;6449;47.666;9.160;2023-07-29T06:53:36;96556.06;;;19.87;100.00
13594;BME280;6449;47.666;9.160;2023-07-29T06:58:31;96560.09;;;19.98;100.00
13594;BME280;6449;47.666;9.160;2023-07-29T07:03:24;96569.34;;;20.02;100.00
13594;BME280;6449;47.666;9.160;2023-07-29T07:08:18;96579.25;;;20.23;100.00
13594;BME280;6449;47.666;9.160;2023-07-29T07:13:11;96567.97;;;20.50;100.00
13594;BME280;6449;47.666;9.160;2023-07-29T07:18:06;96594.22;;;20.53;100.00
13594;BME280;6449;47.666;9.160;2023-07-29T07:22:59;96563.25;;;20.67;100.00
13594;BME280;6449;47.666;9.160;2023-07-29T07:27:53;96557.34;;;20.72;100.00
13594;BME280;6449;47.666;9.160;2023-07-29T07:32:46;96553.09;;;20.77;100.00
13594;BME280;6449;47.666;9.160;2023-07-29T07:37:41;96552.69;;;20.95;100.00
13594;BME280;6449;47.666;9.160;2023-07-29T07:42:34;96537.41;;;21.47;100.00
13594;BME280;6449;47.666;9.160;2023-07-29T07:47:28;96555.28;;;21.81;100.00
13594;BME280;6449;47.666;9.160;2023-07-29T07:52:21;96559.88;;;21.93;100.00
13594;BME280;6449;47.666;9.160;2023-07-29T07:57:16;96556.47;;;22.06;100.00
13594;BME280;6449;47.666;9.160;2023-07-29T08:02:09;96574.66;;;22.24;100.00
13594;BME280;6449;47.666;9.160;2023-07-29T08:07:03;96563.44;;;22.35;100.00
13594;BME280;6449;47.666;9.160;2023-07-29T08:11:56;96570.28;;;22.58;100.00
13594;BME280;6449;47.666;9.160;2023-07-29T08:16:51;96570.47;;;22.97;100.00
13594;BME280;6449;47.666;9.160;2023-07-29T08:21:44;96595.19;;;23.13;100.00
13594;BME280;6449;47.666;9.160;2023-07-29T08:26:38;96584.94;;;23.36;100.00
13594;BME280;6449;47.666;9.160;2023-07-29T08:31:31;96588.44;;;23.57;100.00
13594;BME280;6449;47.666;9.160;2023-07-29T08:36:27;96572.97;;;23.32;100.00
13594;BME280;6449;47.666;9.160;2023-07-29T08:41:28;96579.97;;;23.07;100.00
13594;BME280;6449;47.666;9.160;2023-07-29T08:46:22;96580.31;;;22.90;100.00
13594;BME280;6449;47.666;9.160;2023-07-29T08:51:19;96601.53;;;23.05;100.00
13594;BME280;6449;47.666;9.160;2023-07-29T08:56:16;96581.19;;;23.11;100.00
13594;BME280;6449;47.666;9.160;2023-07-29T09:01:09;96585.31;;;23.13;100.00
13594;BME280;6449;47.666;9.160;2023-07-29T09:06:03;96590.06;;;23.31;100.00
13594;BME280;6449;47.666;9.160;2023-07-29T09:10:57;96602.44;;;23.52;100.00
13594;BME280;6449;47.666;9.160;2023-07-29T09:15:55;96596.91;;;23.80;100.00
13594;BME280;6449;47.666;9.160;2023-07-29T09:20:50;96615.41;;;23.62;100.00
13594;BME280;6449;47.666;9.160;2023-07-29T09:25:45;96597.31;;;23.90;100.00
13594;BME280;6449;47.666;9.160;2023-07-29T09:30:41;96601.59;;;24.24;100.00
13594;BME280;6449;47.666;9.160;2023-07-29T09:35:37;96597.44;;;24.28;100.00
13594;BME280;6449;47.666;9.160;2023-07-29T09:40:35;96597.59;;;24.60;100.00
13594;BME280;6449;47.666;9.160;2023-07-29T09:45:29;96610.09;;;24.79;100.00
13594;BME280;6449;47.666;9.160;2023-07-29T09:50:24;96597.38;;;24.68;100.00
13594;BME280;6449;47.666;9.160;2023-07-29T09:55:21;96610.06;;;24.86;100.00
13594;BME280;6449;47.666;9.160;2023-07-29T10:00:15;96615.56;;;25.04;100.00
13594;BME280;6449;47.666;9.160;2023-07-29T10:05:10;96616.06;;;24.88;100.00
13594;BME280;6449;47.666;9.160;2023-07-29T10:10:06;96604.88;;;24.91;100.00
13594;BME280;6449;47.666;9.160;2023-07-29T10:15:04;96599.09;;;24.94;100.00
13594;BME280;6449;47.666;9.160;2023-07-29T10:19:57;96587.91;;;25.11;100.00
13594;BME280;6449;47.666;9.160;2023-07-29T10:24:53;96607.91;;;25.46;100.00
13594;BME280;6449;47.666;9.160;2023-07-29T10:29:50;96605.97;;;25.85;100.00
13594;BME280;6449;47.666;9.160;2023-07-29T10:34:46;96607.94;;;25.96;100.00
13594;BME280;6449;47.666;9.160;2023-07-29T10:39:41;96599.00;;;26.02;100.00
13594;BME280;6449;47.666;9.160;2023-07-29T10:44:49;96600.34;;;25.30;100.00
13594;BME280;6449;47.666;9.160;2023-07-29T10:49:47;96600.75;;;24.95;100.00
13594;BME280;6449;47.666;9.160;2023-07-29T10:54:44;96590.25;;;25.32;100.00
13594;BME280;6449;47.666;9.160;2023-07-29T10:59:38;96588.41;;;25.57;100.00
13594;BME280;6449;47.666;9.160;2023-07-29T11:04:32;96594.34;;;25.91;100.00
13594;BME280;6449;47.666;9.160;2023-07-29T11:09:52;96582.81;;;26.09;100.00
13594;BME280;6449;47.666;9.160;2023-07-29T11:14:48;96576.13;;;25.93;100.00
13594;BME280;6449;47.666;9.160;2023-07-29T11:19:41;96574.16;;;26.25;100.00
13594;BME280;6449;47.666;9.160;2023-07-29T11:24:35;96575.75;;;26.33;100.00
13594;BME280;6449;47.666;9.160;2023-07-29T11:29:30;96564.09;;;26.39;100.00
13594;BME280;6449;47.666;9.160;2023-07-29T11:34:31;96555.44;;;26.19;100.00
13594;BME280;6449;47.666;9.160;2023-07-29T11:39:25;96552.63;;;26.32;100.00
13594;BME280;6449;47.666;9.160;2023-07-29T11:44:18;96536.63;;;26.00;100.00
13594;BME280;6449;47.666;9.160;2023-07-29T11:49:14;96540.75;;;25.78;100.00
13594;BME280;6449;47.666;9.160;2023-07-29T11:54:08;96544.19;;;25.60;100.00
13594;BME280;6449;47.666;9.160;2023-07-29T11:59:01;96531.38;;;25.62;100.00
13594;BME280;6449;47.666;9.160;2023-07-29T12:03:56;96519.69;;;26.00;100.00
13594;BME280;6449;47.666;9.160;2023-07-29T12:08:52;96541.56;;;26.58;100.00
13594;BME280;6449;47.666;9.160;2023-07-29T12:13:47;96546.25;;;26.08;100.00
13594;BME280;6449;47.666;9.160;2023-07-29T12:18:41;96569.34;;;25.66;100.00
13594;BME280;6449;47.666;9.160;2023-07-29T12:23:36;96579.63;;;25.12;100.00
13594;BME280;6449;47.666;9.160;2023-07-29T12:28:31;96594.66;;;24.75;100.00
13594;BME280;6449;47.666;9.160;2023-07-29T12:33:30;96597.47;;;24.35;100.00
13594;BME280;6449;47.666;9.160;2023-07-29T12:38:26;96607.00;;;23.91;100.00
13594;BME280;6449;47.666;9.160;2023-07-29T12:43:20;96598.34;;;23.49;100.00
13594;BME280;6449;47.666;9.160;2023-07-29T12:48:15;96570.91;;;23.21;100.00
13594;BME280;6449;47.666;9.160;2023-07-29T12:53:09;96580.94;;;22.99;100.00
13594;BME280;6449;47.666;9.160;2023-07-29T12:58:04;96567.47;;;22.66;100.00
13594;BME280;6449;47.666;9.160;2023-07-29T13:02:59;96575.72;;;22.71;100.00
13594;BME280;6449;47.666;9.160;2023-07-29T13:08:02;96569.47;;;22.57;100.00
13594;BME280;6449;47.666;9.160;2023-07-29T13:12:55;96577.97;;;22.74;100.00
13594;BME280;6449;47.666;9.160;2023-07-29T13:17:48;96577.75;;;22.69;100.00
13594;BME280;6449;47.666;9.160;2023-07-29T13:22:42;96593.72;;;22.49;100.00
13594;BME280;6449;47.666;9.160;2023-07-29T13:27:37;96608.19;;;22.27;100.00
13594;BME280;6449;47.666;9.160;2023-07-29T13:32:30;96607.72;;;22.16;100.00
13594;BME280;6449;47.666;9.160;2023-07-29T13:37:23;96624.59;;;21.95;100.00
13594;BME280;6449;47.666;9.160;2023-07-29T13:42:17;96633.13;;;21.84;100.00
13594;BME280;6449;47.666;9.160;2023-07-29T13:47:11;96650.41;;;21.67;100.00
13594;BME280;6449;47.666;9.160;2023-07-29T13:52:05;96634.50;;;21.52;100.00
13594;BME280;6449;47.666;9.160;2023-07-29T13:56:59;96637.34;;;21.51;100.00
13594;BME280;6449;47.666;9.160;2023-07-29T14:01:52;96628.03;;;21.25;100.00
13594;BME280;6449;47.666;9.160;2023-07-29T14:06:47;96602.06;;;21.12;100.00
13594;BME280;6449;47.666;9.160;2023-07-29T14:11:49;96623.53;;;21.04;100.00
13594;BME280;6449;47.666;9.160;2023-07-29T14:16:43;96603.41;;;21.02;100.00
13594;BME280;6449;47.666;9.160;2023-07-29T14:21:36;96601.50;;;20.96;100.00
13594;BME280;6449;47.666;9.160;2023-07-29T14:26:31;96589.19;;;21.16;100.00
13594;BME280;6449;47.666;9.160;2023-07-29T14:31:25;96593.13;;;21.20;100.00
13594;BME280;6449;47.666;9.160;2023-07-29T14:36:18;96602.38;;;21.67;100.00
13594;BME280;6449;47.666;9.160;2023-07-29T14:41:11;96599.44;;;21.83;100.00
13594;BME280;6449;47.666;9.160;2023-07-29T14:46:06;96628.09;;;21.96;100.00
13594;BME280;6449;47.666;9.160;2023-07-29T14:51:00;96641.63;;;21.73;100.00
13594;BME280;6449;47.666;9.160;2023-07-29T14:55:53;96646.09;;;21.66;100.00
13594;BME280;6449;47.666;9.160;2023-07-29T15:00:47;96647.94;;;21.65;100.00
13594;BME280;6449;47.666;9.160;2023-07-29T15:05:41;96673.56;;;21.60;100.00
13594;BME280;6449;47.666;9.160;2023-07-29T15:10:35;96678.06;;;21.59;100.00
13594;BME280;6449;47.666;9.160;2023-07-29T15:15:28;96689.28;;;21.33;100.00
13594;BME280;6449;47.666;9.160;2023-07-29T15:20:22;96670.75;;;21.10;100.00
13594;BME280;6449;47.666;9.160;2023-07-29T15:25:17;96663.16;;;20.92;100.00
13594;BME280;6449;47.666;9.160;2023-07-29T15:30:11;96648.44;;;20.97;100.00
13594;BME280;6449;47.666;9.160;2023-07-29T15:35:05;96652.59;;;20.99;100.00
13594;BME280;6449;47.666;9.160;2023-07-29T15:39:59;96654.31;;;21.07;100.00
13594;BME280;6449;47.666;9.160;2023-07-29T15:44:54;96652.91;;;21.11;100.00
13594;BME280;6449;47.666;9.160;2023-07-29T15:49:47;96661.44;;;21.21;100.00
13594;BME280;6449;47.666;9.160;2023-07-29T15:54:41;96656.94;;;21.22;100.00
13594;BME280;6449;47.666;9.160;2023-07-29T15:59:35;96653.31;;;21.29;100.00
13594;BME280;6449;47.666;9.160;2023-07-29T16:04:29;96644.00;;;21.40;100.00
13594;BME280;6449;47.666;9.160;2023-07-29T16:09:23;96646.97;;;21.30;100.00
13594;BME280;6449;47.666;9.160;2023-07-29T16:14:16;96641.56;;;21.24;100.00
13594;BME280;6449;47.666;9.160;2023-07-29T16:19:11;96637.34;;;21.14;100.00
13594;BME280;6449;47.666;9.160;2023-07-29T16:24:06;96636.53;;;21.14;100.00
13594;BME280;6449;47.666;9.160;2023-07-29T16:28:59;96644.84;;;21.04;100.00
13594;BME280;6449;47.666;9.160;2023-07-29T16:33:52;96640.34;;;21.05;100.00
13594;BME280;6449;47.666;9.160;2023-07-29T16:38:46;96644.75;;;20.98;100.00
13594;BME280;6449;47.666;9.160;2023-07-29T16:43:40;96644.25;;;21.09;100.00
13594;BME280;6449;47.666;9.160;2023-07-29T16:48:34;96643.66;;;21.07;100.00
13594;BME280;6449;47.666;9.160;2023-07-29T16:53:27;96632.25;;;20.98;100.00
13594;BME280;6449;47.666;9.160;2023-07-29T16:58:20;96637.09;;;20.88;100.00
13594;BME280;6449;47.666;9.160;2023-07-29T17:03:15;96630.28;;;20.85;100.00
13594;BME280;6449;47.666;9.160;2023-07-29T17:08:10;96626.72;;;20.78;100.00
13594;BME280;6449;47.666;9.160;2023-07-29T17:13:03;96628.38;;;20.79;100.00
13594;BME280;6449;47.666;9.160;2023-07-29T17:17:57;96644.28;;;20.73;100.00
13594;BME280;6449;47.666;9.160;2023-07-29T17:22:51;96639.22;;;20.63;100.00
13594;BME280;6449;47.666;9.160;2023-07-29T17:27:45;96649.53;;;20.51;100.00
13594;BME280;6449;47.666;9.160;2023-07-29T17:32:38;96648.31;;;20.54;100.00
13594;BME280;6449;47.666;9.160;2023-07-29T17:37:32;96653.72;;;20.60;100.00
13594;BME280;6449;47.666;9.160;2023-07-29T17:42:28;96643.28;;;20.59;100.00
13594;BME280;6449;47.666;9.160;2023-07-29T17:47:21;96633.09;;;20.62;100.00
13594;BME280;6449;47.666;9.160;2023-07-29T17:52:14;96639.03;;;20.50;100.00
13594;BME280;6449;47.666;9.160;2023-07-29T17:57:08;96648.13;;;20.55;100.00
13594;BME280;6449;47.666;9.160;2023-07-29T18:02:03;96646.22;;;20.64;100.00
13594;BME280;6449;47.666;9.160;2023-07-29T18:06:57;96646.56;;;20.61;100.00
13594;BME280;6449;47.666;9.160;2023-07-29T18:11:50;96647.31;;;20.40;100.00
13594;BME280;6449;47.666;9.160;2023-07-29T18:16:43;96656.13;;;20.40;100.00
13594;BME280;6449;47.666;9.160;2023-07-29T18:21:38;96647.13;;;20.41;100.00
13594;BME280;6449;47.666;9.160;2023-07-29T18:26:31;96638.09;;;20.42;100.00
13594;BME280;6449;47.666;9.160;2023-07-29T18:31:26;96646.13;;;20.57;100.00
13594;BME280;6449;47.666;9.160;2023-07-29T18:36:19;96652.06;;;20.45;100.00
13594;BME280;6449;47.666;9.160;2023-07-29T18:41:14;96659.59;;;20.41;100.00
13594;BME280;6449;47.666;9.160;2023-07-29T18:46:08;96653.34;;;20.34;100.00
13594;BME280;6449;47.666;9.160;2023-07-29T18:51:01;96653.63;;;20.24;100.00
13594;BME280;6449;47.666;9.160;2023-07-29T18:55:56;96642.03;;;20.17;100.00
13594;BME280;6449;47.666;9.160;2023-07-29T19:00:51;96645.53;;;20.03;100.00
13594;BME280;6449;47.666;9.160;2023-07-29T19:05:45;96651.75;;;19.95;100.00
13594;BME280;6449;47.666;9.160;2023-07-29T19:10:38;96655.25;;;19.96;100.00
13594;BME280;6449;47.666;9.160;2023-07-29T19:15:32;96668.91;;;19.93;100.00
13594;BME280;6449;47.666;9.160;2023-07-29T19:20:26;96667.97;;;19.85;100.00
13594;BME280;6449;47.666;9.160;2023-07-29T19:25:22;96664.00;;;19.81;100.00
13594;BME280;6449;47.666;9.160;2023-07-29T19:30:15;96665.69;;;19.82;100.00
13594;BME280;6449;47.666;9.160;2023-07-29T19:35:09;96664.84;;;19.82;100.00
13594;BME280;6449;47.666;9.160;2023-07-29T19:40:05;96676.47;;;19.81;100.00
13594;BME280;6449;47.666;9.160;2023-07-29T19:44:59;96678.84;;;19.76;100.00
13594;BME280;6449;47.666;9.160;2023-07-29T19:49:52;96673.66;;;19.59;100.00
13594;BME280;6449;47.666;9.160;2023-07-29T19:54:45;96680.06;;;19.73;100.00
13594;BME280;6449;47.666;9.160;2023-07-29T19:59:40;96684.13;;;19.84;100.00
13594;BME280;6449;47.666;9.160;2023-07-29T20:04:40;96680.63;;;19.83;100.00
13594;BME280;6449;47.666;9.160;2023-07-29T20:09:34;96680.25;;;19.86;100.00
13594;BME280;6449;47.666;9.160;2023-07-29T20:14:27;96678.25;;;19.88;100.00
13594;BME280;6449;47.666;9.160;2023-07-29T20:19:22;96673.66;;;19.82;100.00
13594;BME280;6449;47.666;9.160;2023-07-29T20:24:15;96677.81;;;19.62;100.00
13594;BME280;6449;47.666;9.160;2023-07-29T20:29:08;96663.03;;;19.59;100.00
13594;BME280;6449;47.666;9.160;2023-07-29T20:34:02;96679.13;;;19.58;100.00
13594;BME280;6449;47.666;9.160;2023-07-29T20:38:57;96685.13;;;19.60;100.00
13594;BME280;6449;47.666;9.160;2023-07-29T20:43:51;96676.31;;;19.59;100.00
13594;BME280;6449;47.666;9.160;2023-07-29T20:48:44;96664.19;;;19.57;100.00
13594;BME280;6449;47.666;9.160;2023-07-29T20:53:37;96659.00;;;19.63;100.00
13594;BME280;6449;47.666;9.160;2023-07-29T20:58:32;96661.13;;;19.68;100.00
13594;BME280;6449;47.666;9.160;2023-07-29T21:03:26;96690.22;;;19.70;100.00
13594;BME280;6449;47.666;9.160;2023-07-29T21:08:19;96683.44;;;19.13;100.00
13594;BME280;6449;47.666;9.160;2023-07-29T21:13:13;96687.88;;;19.21;100.00
13594;BME280;6449;47.666;9.160;2023-07-29T21:18:07;96688.16;;;19.26;100.00
13594;BME280;6449;47.666;9.160;2023-07-29T21:23:01;96683.50;;;19.28;100.00
13594;BME280;6449;47.666;9.160;2023-07-29T21:27:54;96671.81;;;19.37;100.00
13594;BME280;6449;47.666;9.160;2023-07-29T21:32:47;96681.31;;;19.31;100.00
13594;BME280;6449;47.666;9.160;2023-07-29T21:37:42;96686.63;;;19.31;100.00
13594;BME280;6449;47.666;9.160;2023-07-29T21:42:35;96671.09;;;19.43;100.00
13594;BME280;6449;47.666;9.160;2023-07-29T21:47:30;96683.34;;;19.29;100.00
13594;BME280;6449;47.666;9.160;2023-07-29T21:52:23;96677.31;;;19.35;100.00
13594;BME280;6449;47.666;9.160;2023-07-29T21:57:21;96676.72;;;19.25;100.00
13594;BME280;6449;47.666;9.160;2023-07-29T22:02:15;96679.06;;;19.43;100.00
13594;BME280;6449;47.666;9.160;2023-07-29T22:07:09;96695.03;;;19.43;100.00
13594;BME280;6449;47.666;9.160;2023-07-29T22:12:03;96699.81;;;19.25;100.00
13594;BME280;6449;47.666;9.160;2023-07-29T22:17:01;96701.47;;;19.26;100.00
13594;BME280;6449;47.666;9.160;2023-07-29T22:21:55;96700.00;;;19.23;100.00
13594;BME280;6449;47.666;9.160;2023-07-29T22:26:48;96700.66;;;19.17;100.00
13594;BME280;6449;47.666;9.160;2023-07-29T22:31:41;96689.38;;;19.23;100.00
13594;BME280;6449;47.666;9.160;2023-07-29T22:36:36;96691.44;;;19.05;100.00
13594;BME280;6449;47.666;9.160;2023-07-29T22:41:30;96679.41;;;19.17;100.00
13594;BME280;6449;47.666;9.160;2023-07-29T22:46:23;96684.00;;;19.00;100.00
13594;BME280;6449;47.666;9.160;2023-07-29T22:51:16;96678.81;;;19.07;100.00
13594;BME280;6449;47.666;9.160;2023-07-29T22:56:11;96684.16;;;19.07;100.00
13594;BME280;6449;47.666;9.160;2023-07-29T23:01:04;96685.19;;;18.98;100.00
13594;BME280;6449;47.666;9.160;2023-07-29T23:05:58;96671.09;;;18.89;100.00
13594;BME280;6449;47.666;9.160;2023-07-29T23:10:51;96675.25;;;18.92;100.00
13594;BME280;6449;47.666;9.160;2023-07-29T23:15:47;96678.88;;;18.91;100.00
13594;BME280;6449;47.666;9.160;2023-07-29T23:20:40;96677.03;;;18.99;100.00
13594;BME280;6449;47.666;9.160;2023-07-29T23:25:34;96674.16;;;19.09;100.00
13594;BME280;6449;47.666;9.160;2023-07-29T23:30:27;96667.44;;;19.21;100.00
13594;BME280;6449;47.666;9.160;2023-07-29T23:35:22;96672.66;;;19.06;100.00
13594;BME280;6449;47.666;9.160;2023-07-29T23:40:15;96660.25;;;18.99;100.00
13594;BME280;6449;47.666;9.160;2023-07-29T23:45:09;96681.22;;;18.94;100.00
13594;BME280;6449;47.666;9.160;2023-07-29T23:50:03;96677.22;;;18.90;100.00
13594;BME280;6449;47.666;9.160;2023-07-29T23:54:59;96667.59;;;18.97;100.00
13594;BME280;6449;47.666;9.160;2023-07-29T23:59:52;96675.78;;;19.18;100.00
